createdAt,value
2018-11-03T00:00:29.590Z,22.30
2018-11-03T00:01:29.562Z,22.20
2018-11-03T00:03:22.961Z,22.20
2018-11-03T00:04:22.936Z,22.30
2018-11-03T00:06:16.316Z,22.70
2018-11-03T00:07:16.306Z,23.40
2018-11-03T00:09:09.708Z,25.00
2018-11-03T00:10:09.681Z,25.40
2018-11-03T00:12:03.075Z,24.50
2018-11-03T00:13:03.061Z,25.60
2018-11-03T00:14:56.502Z,25.30
2018-11-03T00:15:56.472Z,25.30
2018-11-03T00:17:49.371Z,26.40
2018-11-03T00:18:49.354Z,26.10
2018-11-03T00:20:42.757Z,25.10
2018-11-03T00:21:42.729Z,23.80
2018-11-03T00:23:36.128Z,24.20
2018-11-03T00:24:36.103Z,24.30
2018-11-03T00:26:28.989Z,25.40
2018-11-03T00:27:28.976Z,23.90
2018-11-03T00:28:28.971Z,23.70
2018-11-03T00:29:28.964Z,24.80
2018-11-03T00:30:28.958Z,26.10
2018-11-03T00:31:28.952Z,26.00
2018-11-03T00:32:28.944Z,25.50
2018-11-03T00:33:28.934Z,25.40
2018-11-03T00:34:28.926Z,25.00
2018-11-03T00:35:28.922Z,25.40
2018-11-03T00:36:28.921Z,25.00
2018-11-03T00:37:28.909Z,25.50
2018-11-03T00:38:28.908Z,24.10
2018-11-03T00:39:28.895Z,24.10
2018-11-03T00:40:28.959Z,23.60
2018-11-03T00:41:28.880Z,22.80
2018-11-03T00:42:28.876Z,23.00
2018-11-03T00:43:28.869Z,22.70
2018-11-03T00:44:28.859Z,23.60
2018-11-03T00:45:28.855Z,24.10
2018-11-03T00:46:28.849Z,24.60
2018-11-03T00:47:28.842Z,24.50
2018-11-03T00:48:28.838Z,25.90
2018-11-03T00:49:28.832Z,24.40
2018-11-03T00:50:28.825Z,25.80
2018-11-03T00:51:28.823Z,24.20
2018-11-03T00:52:28.813Z,25.00
2018-11-03T00:53:28.802Z,25.30
2018-11-03T00:54:28.796Z,25.70
2018-11-03T00:55:28.788Z,24.40
2018-11-03T00:56:28.780Z,23.50
2018-11-03T00:57:28.774Z,25.30
2018-11-03T00:58:28.770Z,25.30
2018-11-03T00:59:28.757Z,23.00
2018-11-03T01:00:28.756Z,23.20
2018-11-03T01:01:28.747Z,25.40
2018-11-03T01:02:28.745Z,23.50
2018-11-03T01:03:28.735Z,23.00
2018-11-03T01:04:28.737Z,23.60
2018-11-03T01:05:28.745Z,24.50
2018-11-03T01:06:28.719Z,26.10
2018-11-03T01:07:28.705Z,26.10
2018-11-03T01:08:28.713Z,26.20
2018-11-03T01:09:28.687Z,23.30
2018-11-03T01:10:28.690Z,24.90
2018-11-03T01:11:28.676Z,25.60
2018-11-03T01:12:28.674Z,24.80
2018-11-03T01:13:28.662Z,25.70
2018-11-03T01:14:28.664Z,26.50
2018-11-03T01:15:28.649Z,25.50
2018-11-03T01:16:28.646Z,26.00
2018-11-03T01:17:28.637Z,25.70
2018-11-03T01:18:28.631Z,27.20
2018-11-03T01:19:28.628Z,27.60
2018-11-03T01:20:28.619Z,27.10
2018-11-03T01:21:28.608Z,28.00
2018-11-03T01:22:28.606Z,27.00
2018-11-03T01:23:28.629Z,27.80
2018-11-03T01:24:28.586Z,26.80
2018-11-03T01:25:28.582Z,29.00
2018-11-03T01:26:28.583Z,28.10
2018-11-03T01:27:28.570Z,28.20
2018-11-03T01:28:28.565Z,29.20
2018-11-03T01:29:28.553Z,29.10
2018-11-03T01:30:28.553Z,28.20
2018-11-03T01:31:28.570Z,28.90
2018-11-03T01:32:28.568Z,29.20
2018-11-03T01:33:28.529Z,28.10
2018-11-03T01:34:28.527Z,27.20
2018-11-03T01:35:28.517Z,27.70
2018-11-03T01:36:28.514Z,26.70
2018-11-03T01:37:28.502Z,27.90
2018-11-03T01:38:28.505Z,27.40
2018-11-03T01:39:28.493Z,27.20
2018-11-03T01:40:28.481Z,28.40
2018-11-03T01:41:28.477Z,27.90
2018-11-03T01:42:28.481Z,27.20
2018-11-03T01:43:29.052Z,27.50
2018-11-03T01:44:28.459Z,27.80
2018-11-03T01:45:28.452Z,28.20
2018-11-03T01:46:28.453Z,26.60
2018-11-03T01:47:28.437Z,27.10
2018-11-03T01:48:28.431Z,27.30
2018-11-03T01:49:28.424Z,27.50
2018-11-03T01:50:28.427Z,27.40
2018-11-03T01:51:28.416Z,28.90
2018-11-03T01:52:28.414Z,29.20
2018-11-03T01:53:28.402Z,27.40
2018-11-03T01:54:28.400Z,27.90
2018-11-03T01:55:28.388Z,28.30
2018-11-03T01:56:28.379Z,26.90
2018-11-03T01:57:28.370Z,29.00
2018-11-03T01:58:28.368Z,28.00
2018-11-03T01:59:28.359Z,27.50
2018-11-03T02:00:28.359Z,29.00
2018-11-03T02:01:28.346Z,29.10
2018-11-03T02:02:28.345Z,29.20
2018-11-03T02:03:28.333Z,28.80
2018-11-03T02:04:28.329Z,30.60
2018-11-03T02:05:28.318Z,29.90
2018-11-03T02:06:28.320Z,30.60
2018-11-03T02:07:28.308Z,29.90
2018-11-03T02:08:28.299Z,30.10
2018-11-03T02:09:28.320Z,29.30
2018-11-03T02:10:28.294Z,30.60
2018-11-03T02:11:28.281Z,31.00
2018-11-03T02:12:28.277Z,30.20
2018-11-03T02:13:28.275Z,31.00
2018-11-03T02:14:28.270Z,28.60
2018-11-03T02:15:28.256Z,29.60
2018-11-03T02:16:28.256Z,28.30
2018-11-03T02:17:28.249Z,28.20
2018-11-03T02:18:28.237Z,28.30
2018-11-03T02:19:28.230Z,28.90
2018-11-03T02:20:28.225Z,29.70
2018-11-03T02:21:28.219Z,28.20
2018-11-03T02:22:28.219Z,31.50
2018-11-03T02:23:28.211Z,29.40
2018-11-03T02:24:28.201Z,30.40
2018-11-03T02:25:28.196Z,31.00
2018-11-03T02:26:28.185Z,31.80
2018-11-03T02:27:28.181Z,31.60
2018-11-03T02:28:28.169Z,31.20
2018-11-03T02:29:28.166Z,32.50
2018-11-03T02:30:28.167Z,31.60
2018-11-03T02:31:28.157Z,32.80
2018-11-03T02:32:28.145Z,32.00
2018-11-03T02:33:28.142Z,32.10
2018-11-03T02:34:28.131Z,33.60
2018-11-03T02:35:28.124Z,33.10
2018-11-03T02:36:28.123Z,32.20
2018-11-03T02:37:28.116Z,31.10
2018-11-03T02:38:28.114Z,31.70
2018-11-03T02:39:28.099Z,32.10
2018-11-03T02:40:28.095Z,33.00
2018-11-03T02:41:28.084Z,32.20
2018-11-03T02:42:28.084Z,31.60
2018-11-03T02:43:28.078Z,32.80
2018-11-03T02:44:28.068Z,34.20
2018-11-03T02:45:28.063Z,34.50
2018-11-03T02:46:28.057Z,34.10
2018-11-03T02:47:28.048Z,34.80
2018-11-03T02:48:28.044Z,36.90
2018-11-03T02:49:28.044Z,35.10
2018-11-03T02:50:28.030Z,36.00
2018-11-03T02:51:28.018Z,37.30
2018-11-03T02:52:28.024Z,36.20
2018-11-03T02:53:28.013Z,36.50
2018-11-03T02:54:28.005Z,36.10
2018-11-03T02:55:27.993Z,35.10
2018-11-03T02:56:27.987Z,36.50
2018-11-03T02:57:27.980Z,34.00
2018-11-03T02:58:27.978Z,33.50
2018-11-03T02:59:27.966Z,33.30
2018-11-03T03:00:27.962Z,34.50
2018-11-03T03:01:27.954Z,34.80
2018-11-03T03:02:27.953Z,34.10
2018-11-03T03:03:27.943Z,34.30
2018-11-03T03:04:27.937Z,33.60
2018-11-03T03:05:27.925Z,34.10
2018-11-03T03:06:27.927Z,34.40
2018-11-03T03:07:27.917Z,34.80
2018-11-03T03:08:27.910Z,34.30
2018-11-03T03:09:27.901Z,35.60
2018-11-03T03:10:27.893Z,35.90
2018-11-03T03:11:27.895Z,35.30
2018-11-03T03:12:27.882Z,35.50
2018-11-03T03:13:27.876Z,35.60
2018-11-03T03:14:27.872Z,36.80
2018-11-03T03:15:27.861Z,35.70
2018-11-03T03:16:27.851Z,37.60
2018-11-03T03:17:27.848Z,39.00
2018-11-03T03:18:27.845Z,38.30
2018-11-03T03:19:27.840Z,39.30
2018-11-03T03:20:27.825Z,37.50
2018-11-03T03:21:27.818Z,38.40
2018-11-03T03:22:27.820Z,35.00
2018-11-03T03:23:27.808Z,36.40
2018-11-03T03:24:27.801Z,36.30
2018-11-03T03:25:27.797Z,38.00
2018-11-03T03:26:27.788Z,38.70
2018-11-03T03:27:27.781Z,39.00
2018-11-03T03:28:27.774Z,38.50
2018-11-03T03:29:27.805Z,39.90
2018-11-03T03:30:27.768Z,39.50
2018-11-03T03:31:27.759Z,37.40
2018-11-03T03:32:27.753Z,37.40
2018-11-03T03:33:27.738Z,40.00
2018-11-03T03:34:27.734Z,40.00
2018-11-03T03:35:27.724Z,38.00
2018-11-03T03:36:27.719Z,39.20
2018-11-03T03:37:27.712Z,39.20
2018-11-03T03:38:27.708Z,38.40
2018-11-03T03:39:27.699Z,39.10
2018-11-03T03:40:27.693Z,38.90
2018-11-03T03:41:27.685Z,38.70
2018-11-03T03:42:27.682Z,39.50
2018-11-03T03:43:27.675Z,38.20
2018-11-03T03:44:27.665Z,37.60
2018-11-03T03:45:27.662Z,36.50
2018-11-03T03:46:27.655Z,35.90
2018-11-03T03:47:27.647Z,36.20
2018-11-03T03:48:27.643Z,35.90
2018-11-03T03:49:27.634Z,37.20
2018-11-03T03:50:27.628Z,36.40
2018-11-03T03:51:27.621Z,35.70
2018-11-03T03:52:27.610Z,36.40
2018-11-03T03:53:27.608Z,35.80
2018-11-03T03:54:27.603Z,36.40
2018-11-03T03:55:27.592Z,36.20
2018-11-03T03:56:27.587Z,35.40
2018-11-03T03:57:27.585Z,35.90
2018-11-03T03:58:27.574Z,35.40
2018-11-03T03:59:27.566Z,37.70
2018-11-03T04:00:27.560Z,39.00
2018-11-03T04:01:27.553Z,38.00
2018-11-03T04:02:27.549Z,40.00
2018-11-03T04:03:27.539Z,39.70
2018-11-03T04:04:27.532Z,36.90
2018-11-03T04:05:27.526Z,38.10
2018-11-03T04:06:27.519Z,36.70
2018-11-03T04:07:27.516Z,36.70
2018-11-03T04:08:27.512Z,37.80
2018-11-03T04:09:27.498Z,37.60
2018-11-03T04:10:27.492Z,39.80
2018-11-03T04:11:27.486Z,38.70
2018-11-03T04:12:27.481Z,40.80
2018-11-03T04:13:27.483Z,43.40
2018-11-03T04:14:27.467Z,42.30
2018-11-03T04:15:27.460Z,41.00
2018-11-03T04:16:27.455Z,42.50
2018-11-03T04:17:27.451Z,41.50
2018-11-03T04:18:27.438Z,45.60
2018-11-03T04:19:27.439Z,37.70
2018-11-03T04:20:27.435Z,38.20
2018-11-03T04:21:27.423Z,36.50
2018-11-03T04:22:27.414Z,38.20
2018-11-03T04:23:27.406Z,38.60
2018-11-03T04:24:27.400Z,37.90
2018-11-03T04:25:27.395Z,37.60
2018-11-03T04:26:27.385Z,37.20
2018-11-03T04:27:27.380Z,37.70
2018-11-03T04:28:27.369Z,37.10
2018-11-03T04:29:27.367Z,38.20
2018-11-03T04:30:27.360Z,37.30
2018-11-03T04:31:27.354Z,39.30
2018-11-03T04:32:27.349Z,38.10
2018-11-03T04:33:27.341Z,37.10
2018-11-03T04:34:27.328Z,37.70
2018-11-03T04:35:27.332Z,38.20
2018-11-03T04:36:27.318Z,38.60
2018-11-03T04:37:27.333Z,37.70
2018-11-03T04:38:27.304Z,38.40
2018-11-03T04:39:27.308Z,37.70
2018-11-03T04:40:27.288Z,38.30
2018-11-03T04:41:27.290Z,40.10
2018-11-03T04:42:27.279Z,38.80
2018-11-03T04:43:27.273Z,40.40
2018-11-03T04:44:27.262Z,40.50
2018-11-03T04:45:27.310Z,40.60
2018-11-03T04:46:27.249Z,39.60
2018-11-03T04:47:27.249Z,44.40
2018-11-03T04:48:27.243Z,41.50
2018-11-03T04:49:27.228Z,39.50
2018-11-03T04:50:27.226Z,41.50
2018-11-03T04:51:27.218Z,41.10
2018-11-03T04:52:27.207Z,41.50
2018-11-03T04:53:27.231Z,41.40
2018-11-03T04:54:27.196Z,40.80
2018-11-03T04:55:27.189Z,39.50
2018-11-03T04:56:27.185Z,40.30
2018-11-03T04:57:27.171Z,41.10
2018-11-03T04:58:27.165Z,39.90
2018-11-03T04:59:27.158Z,40.90
2018-11-03T05:00:27.150Z,40.00
2018-11-03T05:01:27.150Z,42.20
2018-11-03T05:02:27.145Z,39.50
2018-11-03T05:03:27.131Z,40.20
2018-11-03T05:04:27.127Z,39.50
2018-11-03T05:05:27.124Z,38.60
2018-11-03T05:06:27.116Z,39.10
2018-11-03T05:07:27.103Z,38.80
2018-11-03T05:08:27.101Z,38.60
2018-11-03T05:09:27.085Z,40.50
2018-11-03T05:10:27.121Z,43.20
2018-11-03T05:11:27.076Z,41.10
2018-11-03T05:12:27.070Z,43.00
2018-11-03T05:13:27.069Z,40.30
2018-11-03T05:14:27.057Z,40.50
2018-11-03T05:15:27.050Z,38.10
2018-11-03T05:16:27.044Z,42.00
2018-11-03T05:17:27.031Z,40.80
2018-11-03T05:18:27.024Z,38.20
2018-11-03T05:19:27.016Z,40.50
2018-11-03T05:20:27.011Z,40.20
2018-11-03T05:21:27.117Z,40.10
2018-11-03T05:22:27.000Z,39.70
2018-11-03T05:23:26.991Z,39.90
2018-11-03T05:24:26.983Z,40.60
2018-11-03T05:25:26.975Z,39.20
2018-11-03T05:26:26.963Z,40.60
2018-11-03T05:27:26.962Z,43.80
2018-11-03T05:28:26.953Z,38.70
2018-11-03T05:29:26.949Z,41.00
2018-11-03T05:30:26.945Z,40.60
2018-11-03T05:31:26.933Z,40.00
2018-11-03T05:32:26.925Z,43.90
2018-11-03T05:33:26.920Z,41.00
2018-11-03T05:34:26.911Z,39.20
2018-11-03T05:35:26.906Z,43.20
2018-11-03T05:36:26.893Z,43.50
2018-11-03T05:37:26.889Z,40.50
2018-11-03T05:38:26.882Z,39.60
2018-11-03T05:39:26.894Z,40.00
2018-11-03T05:40:26.886Z,41.00
2018-11-03T05:41:26.858Z,41.50
2018-11-03T05:42:26.861Z,42.90
2018-11-03T05:43:26.849Z,38.60
2018-11-03T05:44:26.840Z,40.70
2018-11-03T05:45:26.835Z,41.80
2018-11-03T05:46:26.884Z,40.00
2018-11-03T05:47:26.827Z,43.00
2018-11-03T05:48:26.811Z,42.40
2018-11-03T05:49:26.811Z,38.90
2018-11-03T05:50:26.796Z,44.00
2018-11-03T05:51:26.794Z,41.80
2018-11-03T05:52:26.786Z,39.80
2018-11-03T05:53:26.792Z,46.30
2018-11-03T05:54:26.770Z,44.70
2018-11-03T05:55:26.767Z,41.00
2018-11-03T05:56:26.758Z,39.90
2018-11-03T05:57:26.760Z,43.30
2018-11-03T05:58:26.744Z,43.00
2018-11-03T05:59:26.738Z,39.90
2018-11-03T06:00:26.727Z,41.70
2018-11-03T06:01:26.726Z,38.60
2018-11-03T06:02:26.718Z,39.80
2018-11-03T06:03:26.712Z,39.80
2018-11-03T06:04:26.713Z,45.10
2018-11-03T06:05:26.694Z,43.20
2018-11-03T06:06:26.685Z,42.30
2018-11-03T06:07:26.689Z,44.70
2018-11-03T06:08:26.689Z,47.20
2018-11-03T06:09:26.685Z,46.80
2018-11-03T06:10:26.667Z,45.40
2018-11-03T06:11:26.655Z,44.60
2018-11-03T06:12:26.652Z,43.90
2018-11-03T06:13:26.701Z,46.20
2018-11-03T06:14:26.640Z,40.30
2018-11-03T06:15:27.668Z,42.70
2018-11-03T06:16:26.625Z,41.30
2018-11-03T06:17:26.612Z,40.70
2018-11-03T06:18:26.617Z,40.90
2018-11-03T06:19:26.612Z,44.40
2018-11-03T06:20:27.541Z,42.40
2018-11-03T06:21:26.588Z,41.50
2018-11-03T06:22:26.625Z,43.10
2018-11-03T06:23:26.672Z,42.00
2018-11-03T06:24:26.571Z,44.10
2018-11-03T06:25:26.563Z,43.60
2018-11-03T06:26:26.563Z,41.80
2018-11-03T06:27:26.553Z,43.20
2018-11-03T06:28:26.541Z,40.40
2018-11-03T06:29:26.539Z,41.60
2018-11-03T06:30:26.527Z,41.00
2018-11-03T06:31:26.518Z,43.40
2018-11-03T06:32:26.523Z,41.30
2018-11-03T06:33:26.510Z,42.00
2018-11-03T06:34:26.514Z,42.90
2018-11-03T06:35:26.580Z,40.70
2018-11-03T06:36:26.483Z,46.00
2018-11-03T06:37:26.483Z,40.80
2018-11-03T06:38:26.483Z,46.10
2018-11-03T06:39:26.474Z,44.50
2018-11-03T06:40:26.459Z,47.40
2018-11-03T06:41:26.451Z,45.70
2018-11-03T06:42:26.446Z,41.30
2018-11-03T06:43:26.442Z,47.70
2018-11-03T06:44:26.433Z,48.10
2018-11-03T06:45:26.427Z,46.10
2018-11-03T06:46:26.425Z,44.20
2018-11-03T06:47:26.492Z,43.90
2018-11-03T06:48:26.418Z,46.30
2018-11-03T06:49:26.397Z,48.30
2018-11-03T06:50:26.403Z,44.30
2018-11-03T06:51:26.387Z,45.40
2018-11-03T06:52:26.386Z,41.40
2018-11-03T06:53:26.371Z,45.70
2018-11-03T06:54:26.373Z,42.00
2018-11-03T06:55:26.358Z,42.30
2018-11-03T06:56:26.354Z,41.40
2018-11-03T06:57:26.345Z,45.30
2018-11-03T06:58:26.349Z,44.80
2018-11-03T06:59:26.336Z,42.00
2018-11-03T07:00:26.325Z,42.90
2018-11-03T07:01:26.319Z,42.80
2018-11-03T07:02:26.319Z,41.10
2018-11-03T07:03:26.307Z,39.30
2018-11-03T07:04:26.303Z,40.10
2018-11-03T07:05:26.291Z,38.10
2018-11-03T07:06:26.286Z,41.70
2018-11-03T07:07:26.284Z,40.00
2018-11-03T07:08:26.276Z,40.30
2018-11-03T07:09:26.269Z,38.30
2018-11-03T07:10:26.275Z,38.30
2018-11-03T07:11:26.337Z,38.60
2018-11-03T07:12:26.454Z,38.20
2018-11-03T07:13:26.333Z,38.50
2018-11-03T07:14:26.245Z,37.20
2018-11-03T07:15:26.227Z,38.90
2018-11-03T07:16:26.223Z,38.10
2018-11-03T07:17:26.388Z,38.60
2018-11-03T07:18:26.226Z,38.60
2018-11-03T07:19:26.214Z,39.20
2018-11-03T07:20:26.196Z,39.70
2018-11-03T07:21:26.197Z,39.00
2018-11-03T07:22:26.185Z,38.50
2018-11-03T07:23:26.174Z,37.90
2018-11-03T07:24:26.171Z,39.20
2018-11-03T07:25:26.164Z,37.90
2018-11-03T07:26:26.166Z,37.80
2018-11-03T07:27:26.157Z,40.00
2018-11-03T07:28:26.146Z,38.80
2018-11-03T07:29:26.148Z,39.00
2018-11-03T07:30:26.131Z,37.40
2018-11-03T07:31:26.129Z,37.80
2018-11-03T07:32:26.128Z,37.60
2018-11-03T07:33:26.114Z,37.70
2018-11-03T07:34:26.109Z,38.10
2018-11-03T07:35:26.099Z,36.80
2018-11-03T07:36:26.092Z,36.00
2018-11-03T07:37:26.096Z,36.30
2018-11-03T07:38:27.054Z,35.30
2018-11-03T07:39:27.623Z,36.20
2018-11-03T07:40:26.065Z,36.60
2018-11-03T07:41:26.142Z,34.90
2018-11-03T07:42:26.098Z,36.30
2018-11-03T07:43:26.045Z,35.60
2018-11-03T07:44:26.042Z,36.70
2018-11-03T07:45:26.037Z,35.50
2018-11-03T07:46:26.026Z,35.50
2018-11-03T07:47:26.021Z,34.80
2018-11-03T07:48:26.023Z,36.00
2018-11-03T07:49:26.182Z,36.70
2018-11-03T07:50:26.008Z,36.10
2018-11-03T07:51:25.993Z,35.80
2018-11-03T07:52:25.988Z,35.20
2018-11-03T07:53:25.979Z,36.00
2018-11-03T07:54:26.025Z,37.90
2018-11-03T07:55:25.965Z,36.20
2018-11-03T07:56:25.959Z,35.80
2018-11-03T07:57:25.959Z,36.90
2018-11-03T07:58:25.951Z,36.10
2018-11-03T07:59:25.942Z,36.40
2018-11-03T08:00:26.606Z,37.50
2018-11-03T08:01:25.928Z,35.60
2018-11-03T08:02:25.921Z,35.10
2018-11-03T08:03:25.915Z,35.60
2018-11-03T08:04:25.907Z,36.00
2018-11-03T08:05:25.901Z,36.20
2018-11-03T08:06:25.901Z,36.20
2018-11-03T08:07:25.886Z,37.00
2018-11-03T08:08:25.878Z,35.90
2018-11-03T08:09:25.876Z,34.60
2018-11-03T08:10:25.874Z,35.30
2018-11-03T08:11:25.858Z,34.50
2018-11-03T08:12:25.854Z,34.60
2018-11-03T08:13:25.848Z,35.20
2018-11-03T08:14:25.854Z,35.70
2018-11-03T08:15:25.854Z,34.70
2018-11-03T08:16:25.824Z,34.70
2018-11-03T08:17:25.820Z,34.50
2018-11-03T08:18:25.815Z,35.10
2018-11-03T08:19:25.808Z,34.80
2018-11-03T08:20:25.818Z,34.80
2018-11-03T08:21:25.796Z,34.00
2018-11-03T08:22:25.793Z,33.90
2018-11-03T08:23:25.779Z,33.40
2018-11-03T08:24:25.774Z,32.80
2018-11-03T08:25:25.767Z,33.10
2018-11-03T08:26:25.762Z,33.40
2018-11-03T08:27:25.757Z,34.40
2018-11-03T08:28:25.749Z,33.60
2018-11-03T08:29:25.745Z,33.30
2018-11-03T08:30:25.742Z,33.10
2018-11-03T08:31:25.738Z,31.40
2018-11-03T08:32:25.723Z,33.30
2018-11-03T08:33:25.718Z,32.70
2018-11-03T08:34:25.718Z,32.50
2018-11-03T08:35:25.702Z,30.90
2018-11-03T08:36:25.716Z,31.00
2018-11-03T08:37:25.691Z,31.20
2018-11-03T08:38:25.688Z,30.70
2018-11-03T08:39:25.740Z,32.60
2018-11-03T08:40:25.673Z,32.00
2018-11-03T08:41:25.661Z,32.70
2018-11-03T08:42:25.669Z,31.40
2018-11-03T08:43:25.652Z,30.90
2018-11-03T08:44:25.644Z,31.70
2018-11-03T08:45:25.635Z,31.50
2018-11-03T08:46:25.629Z,32.40
2018-11-03T08:47:25.623Z,32.10
2018-11-03T08:48:25.745Z,30.50
2018-11-03T08:49:25.619Z,31.90
2018-11-03T08:50:25.610Z,30.90
2018-11-03T08:51:25.618Z,31.40
2018-11-03T08:52:25.597Z,31.00
2018-11-03T08:53:25.589Z,30.30
2018-11-03T08:54:25.583Z,30.50
2018-11-03T08:55:25.573Z,31.10
2018-11-03T08:56:25.568Z,30.70
2018-11-03T08:57:25.568Z,29.50
2018-11-03T08:58:25.557Z,31.90
2018-11-03T08:59:25.586Z,31.10
2018-11-03T09:00:25.548Z,31.60
2018-11-03T09:01:25.537Z,30.80
2018-11-03T09:02:25.534Z,31.00
2018-11-03T09:03:25.527Z,29.60
2018-11-03T09:04:25.520Z,31.70
2018-11-03T09:05:25.546Z,32.00
2018-11-03T09:06:25.516Z,33.40
2018-11-03T09:07:25.509Z,30.80
2018-11-03T09:08:25.495Z,29.70
2018-11-03T09:09:25.490Z,28.40
2018-11-03T09:10:25.506Z,29.10
2018-11-03T09:11:25.478Z,28.70
2018-11-03T09:12:25.473Z,28.10
2018-11-03T09:13:25.469Z,27.80
2018-11-03T09:14:25.503Z,28.60
2018-11-03T09:15:25.460Z,28.40
2018-11-03T09:16:25.449Z,27.90
2018-11-03T09:17:25.447Z,27.70
2018-11-03T09:18:25.472Z,27.90
2018-11-03T09:19:25.432Z,27.30
2018-11-03T09:20:25.419Z,26.60
2018-11-03T09:21:25.417Z,27.00
2018-11-03T09:22:26.204Z,26.20
2018-11-03T09:23:25.406Z,26.40
2018-11-03T09:24:25.400Z,26.50
2018-11-03T09:25:25.394Z,26.90
2018-11-03T09:26:25.392Z,25.10
2018-11-03T09:27:25.429Z,25.90
2018-11-03T09:28:25.375Z,25.70
2018-11-03T09:29:25.368Z,24.60
2018-11-03T09:30:25.363Z,24.40
2018-11-03T09:31:25.358Z,24.90
2018-11-03T09:32:25.359Z,22.40
2018-11-03T09:33:25.344Z,21.60
2018-11-03T09:34:25.370Z,23.30
2018-11-03T09:35:25.341Z,21.20
2018-11-03T09:36:25.331Z,21.80
2018-11-03T09:37:25.324Z,21.20
2018-11-03T09:38:25.420Z,21.50
2018-11-03T09:39:25.313Z,21.80
2018-11-03T09:40:25.309Z,20.00
2018-11-03T09:41:25.310Z,19.90
2018-11-03T09:42:25.299Z,20.40
2018-11-03T09:43:25.360Z,18.90
2018-11-03T09:44:25.285Z,18.30
2018-11-03T09:45:25.284Z,18.60
2018-11-03T09:46:25.277Z,18.10
2018-11-03T09:47:25.275Z,18.90
2018-11-03T09:48:25.269Z,17.30
2018-11-03T09:49:25.261Z,17.80
2018-11-03T09:50:25.261Z,18.20
2018-11-03T09:51:25.249Z,17.60
2018-11-03T09:52:25.245Z,16.80
2018-11-03T09:53:25.241Z,16.30
2018-11-03T09:54:25.238Z,15.50
2018-11-03T09:55:25.226Z,18.40
2018-11-03T09:56:25.246Z,16.60
2018-11-03T09:57:25.221Z,17.90
2018-11-03T09:58:25.215Z,17.10
2018-11-03T09:59:25.208Z,16.60
2018-11-03T10:00:25.205Z,19.10
2018-11-03T10:01:25.198Z,16.40
2018-11-03T10:02:25.193Z,14.70
2018-11-03T10:03:25.225Z,14.00
2018-11-03T10:04:25.216Z,15.50
2018-11-03T10:05:25.180Z,14.40
2018-11-03T10:06:25.184Z,15.00
2018-11-03T10:07:26.167Z,14.60
2018-11-03T10:08:25.172Z,13.50
2018-11-03T10:09:25.153Z,14.10
2018-11-03T10:10:25.154Z,14.20
2018-11-03T10:11:25.143Z,13.80
2018-11-03T10:12:25.152Z,16.20
2018-11-03T10:13:25.134Z,15.00
2018-11-03T10:14:25.136Z,14.50
2018-11-03T10:15:25.129Z,15.90
2018-11-03T10:16:25.123Z,15.80
2018-11-03T10:17:25.120Z,14.60
2018-11-03T10:18:25.112Z,13.90
2018-11-03T10:19:25.105Z,14.30
2018-11-03T10:20:25.110Z,14.40
2018-11-03T10:21:25.101Z,14.30
2018-11-03T10:22:25.119Z,13.60
2018-11-03T10:23:25.085Z,15.50
2018-11-03T10:24:25.080Z,15.10
2018-11-03T10:25:25.076Z,15.60
2018-11-03T10:26:25.101Z,15.80
2018-11-03T10:27:25.063Z,15.80
2018-11-03T10:28:25.057Z,16.10
2018-11-03T10:29:25.056Z,16.70
2018-11-03T10:30:25.053Z,17.00
2018-11-03T10:31:25.040Z,17.00
2018-11-03T10:32:25.039Z,16.00
2018-11-03T10:33:25.076Z,15.60
2018-11-03T10:34:25.028Z,15.90
2018-11-03T10:35:25.022Z,16.90
2018-11-03T10:36:25.017Z,17.10
2018-11-03T10:37:25.015Z,17.80
2018-11-03T10:38:25.012Z,16.70
2018-11-03T10:39:25.017Z,16.00
2018-11-03T10:40:24.997Z,16.90
2018-11-03T10:41:24.995Z,17.10
2018-11-03T10:42:25.670Z,18.40
2018-11-03T10:43:24.982Z,18.00
2018-11-03T10:44:24.977Z,17.70
2018-11-03T10:45:24.968Z,16.90
2018-11-03T10:46:24.997Z,17.10
2018-11-03T10:47:24.958Z,17.40
2018-11-03T10:48:24.959Z,16.50
2018-11-03T10:49:24.951Z,16.80
2018-11-03T10:50:24.958Z,17.50
2018-11-03T10:51:24.938Z,17.40
2018-11-03T10:52:24.954Z,15.20
2018-11-03T10:53:24.987Z,16.40
2018-11-03T10:54:24.927Z,15.40
2018-11-03T10:55:24.927Z,15.60
2018-11-03T10:56:24.913Z,14.00
2018-11-03T10:57:24.912Z,11.00
2018-11-03T10:58:24.903Z,12.50
2018-11-03T10:59:24.898Z,12.30
2018-11-03T11:00:24.912Z,12.90
2018-11-03T11:01:24.889Z,11.00
2018-11-03T11:02:24.883Z,11.70
2018-11-03T11:03:24.886Z,13.80
2018-11-03T11:04:24.873Z,11.20
2018-11-03T11:05:24.873Z,12.00
2018-11-03T11:06:24.867Z,14.00
2018-11-03T11:07:24.862Z,12.30
2018-11-03T11:08:24.859Z,10.30
2018-11-03T11:09:24.853Z,12.80
2018-11-03T11:10:24.842Z,14.40
2018-11-03T11:11:24.846Z,11.60
2018-11-03T11:12:24.836Z,13.60
2018-11-03T11:13:24.831Z,12.10
2018-11-03T11:14:24.828Z,12.20
2018-11-03T11:15:24.821Z,12.10
2018-11-03T11:16:24.905Z,13.30
2018-11-03T11:17:24.811Z,13.70
2018-11-03T11:18:24.804Z,11.90
2018-11-03T11:19:24.830Z,10.40
2018-11-03T11:20:24.837Z,12.30
2018-11-03T11:21:24.795Z,13.10
2018-11-03T11:22:24.789Z,13.40
2018-11-03T11:23:24.870Z,11.20
2018-11-03T11:24:25.037Z,13.50
2018-11-03T11:25:24.848Z,10.60
2018-11-03T11:26:24.764Z,10.60
2018-11-03T11:27:24.759Z,11.00
2018-11-03T11:28:24.761Z,10.30
2018-11-03T11:29:24.761Z,14.70
2018-11-03T11:30:24.745Z,12.20
2018-11-03T11:31:24.802Z,11.10
2018-11-03T11:32:24.737Z,11.50
2018-11-03T11:33:24.731Z,12.90
2018-11-03T11:34:24.733Z,11.10
2018-11-03T11:35:24.722Z,13.40
2018-11-03T11:36:24.715Z,12.10
2018-11-03T11:37:24.797Z,11.30
2018-11-03T11:38:24.708Z,12.70
2018-11-03T11:39:24.705Z,13.20
2018-11-03T11:40:24.697Z,11.00
2018-11-03T11:41:24.699Z,12.60
2018-11-03T11:42:24.688Z,10.10
2018-11-03T11:43:24.686Z,10.90
2018-11-03T11:44:24.675Z,10.10
2018-11-03T11:45:24.672Z,9.10
2018-11-03T11:46:24.667Z,11.20
2018-11-03T11:47:24.665Z,10.20
2018-11-03T11:48:24.660Z,10.80
2018-11-03T11:49:24.656Z,12.00
2018-11-03T11:50:24.649Z,12.80
2018-11-03T11:51:24.643Z,10.00
2018-11-03T11:52:24.642Z,10.60
2018-11-03T11:53:24.630Z,10.00
2018-11-03T11:54:24.638Z,8.90
2018-11-03T11:55:24.624Z,9.20
2018-11-03T11:56:24.623Z,10.20
2018-11-03T11:57:25.201Z,9.70
2018-11-03T11:58:24.653Z,10.20
2018-11-03T11:59:24.609Z,11.60
2018-11-03T12:00:24.631Z,8.90
2018-11-03T12:01:24.597Z,11.00
2018-11-03T12:02:24.655Z,10.70
2018-11-03T12:03:24.589Z,9.00
2018-11-03T12:04:24.585Z,10.00
2018-11-03T12:05:24.578Z,8.70
2018-11-03T12:06:24.580Z,10.30
2018-11-03T12:07:24.574Z,8.60
2018-11-03T12:08:24.566Z,8.20
2018-11-03T12:09:24.562Z,7.80
2018-11-03T12:10:24.558Z,10.00
2018-11-03T12:11:24.554Z,9.00
2018-11-03T12:12:24.550Z,8.40
2018-11-03T12:13:24.543Z,10.30
2018-11-03T12:14:24.542Z,8.80
2018-11-03T12:15:24.538Z,10.10
2018-11-03T12:16:24.549Z,8.30
2018-11-03T12:17:24.530Z,11.60
2018-11-03T12:18:24.537Z,7.90
2018-11-03T12:19:24.521Z,9.90
2018-11-03T12:20:24.514Z,8.20
2018-11-03T12:21:24.509Z,9.30
2018-11-03T12:22:24.508Z,9.20
2018-11-03T12:23:24.499Z,9.60
2018-11-03T12:24:24.499Z,9.70
2018-11-03T12:25:24.520Z,8.30
2018-11-03T12:26:24.495Z,6.80
2018-11-03T12:27:24.489Z,7.80
2018-11-03T12:28:24.483Z,8.50
2018-11-03T12:29:24.475Z,8.80
2018-11-03T12:30:24.471Z,9.10
2018-11-03T12:31:24.493Z,7.70
2018-11-03T12:32:24.464Z,10.40
2018-11-03T12:33:25.126Z,8.90
2018-11-03T12:34:24.454Z,9.30
2018-11-03T12:35:24.455Z,6.10
2018-11-03T12:36:24.446Z,8.50
2018-11-03T12:37:24.439Z,9.90
2018-11-03T12:38:24.470Z,7.40
2018-11-03T12:39:24.436Z,8.80
2018-11-03T12:40:24.430Z,8.20
2018-11-03T12:41:24.477Z,8.20
2018-11-03T12:42:24.418Z,7.50
2018-11-03T12:43:24.416Z,7.10
2018-11-03T12:44:24.498Z,10.10
2018-11-03T12:45:24.407Z,9.40
2018-11-03T12:46:24.400Z,10.20
2018-11-03T12:47:24.397Z,7.50
2018-11-03T12:48:24.566Z,9.60
2018-11-03T12:49:24.396Z,9.80
2018-11-03T12:50:24.389Z,6.60
2018-11-03T12:51:24.383Z,7.70
2018-11-03T12:52:24.377Z,7.40
2018-11-03T12:53:24.376Z,9.20
2018-11-03T12:54:24.370Z,8.50
2018-11-03T12:55:24.384Z,7.10
2018-11-03T12:56:24.364Z,6.30
2018-11-03T12:57:24.358Z,8.90
2018-11-03T12:58:24.352Z,8.00
2018-11-03T12:59:24.362Z,7.30
2018-11-03T13:00:24.348Z,7.50
2018-11-03T13:01:24.340Z,6.80
2018-11-03T13:02:24.339Z,6.10